sensor_id;sensor_type;location;lat;lon;timestamp;pressure;altitude;pressure_sealevel;temperature;humidity
22181;BME280;11256;50.830;12.834;2023-04-23T00:02:00;96860.44;;;17.98;44.81
22181;BME280;11256;50.830;12.834;2023-04-23T00:07:02;96862.28;;;17.94;44.72
22181;BME280;11256;50.830;12.834;2023-04-23T00:12:03;96858.19;;;17.88;44.66
22181;BME280;11256;50.830;12.834;2023-04-23T00:17:06;96855.09;;;17.90;44.81
22181;BME280;11256;50.830;12.834;2023-04-23T00:22:06;96849.84;;;17.85;44.85
22181;BME280;11256;50.830;12.834;2023-04-23T00:27:07;96838.34;;;17.79;44.88
22181;BME280;11256;50.830;12.834;2023-04-23T00:32:07;96842.94;;;17.75;44.88
22181;BME280;11256;50.830;12.834;2023-04-23T00:37:07;96842.13;;;17.75;45.00
22181;BME280;11256;50.830;12.834;2023-04-23T00:42:08;96846.72;;;17.71;44.96
22181;BME280;11256;50.830;12.834;2023-04-23T00:47:13;96841.91;;;17.68;45.11
22181;BME280;11256;50.830;12.834;2023-04-23T00:52:14;96835.09;;;17.62;44.92
22181;BME280;11256;50.830;12.834;2023-04-23T00:57:14;96829.25;;;17.63;44.94
22181;BME280;11256;50.830;12.834;2023-04-23T01:02:16;96824.56;;;17.64;44.91
22181;BME280;11256;50.830;12.834;2023-04-23T01:07:17;96823.69;;;17.60;45.15
22181;BME280;11256;50.830;12.834;2023-04-23T01:12:17;96825.28;;;17.61;45.29
22181;BME280;11256;50.830;12.834;2023-04-23T01:17:18;96815.47;;;17.48;45.28
22181;BME280;11256;50.830;12.834;2023-04-23T01:22:19;96830.53;;;17.54;45.71
22181;BME280;11256;50.830;12.834;2023-04-23T01:27:21;96813.00;;;17.43;45.83
22181;BME280;11256;50.830;12.834;2023-04-23T01:32:23;96829.16;;;17.48;45.78
22181;BME280;11256;50.830;12.834;2023-04-23T01:37:25;96828.03;;;17.49;45.90
22181;BME280;11256;50.830;12.834;2023-04-23T01:42:26;96813.66;;;17.40;45.77
22181;BME280;11256;50.830;12.834;2023-04-23T01:47:27;96829.28;;;17.39;45.97
22181;BME280;11256;50.830;12.834;2023-04-23T01:52:27;96829.75;;;17.29;46.04
22181;BME280;11256;50.830;12.834;2023-04-23T01:57:28;96818.91;;;17.21;46.19
22181;BME280;11256;50.830;12.834;2023-04-23T02:02:28;96802.72;;;17.04;46.22
22181;BME280;11256;50.830;12.834;2023-04-23T02:07:33;96811.41;;;17.06;47.18
22181;BME280;11256;50.830;12.834;2023-04-23T02:12:33;96803.19;;;16.94;47.95
22181;BME280;11256;50.830;12.834;2023-04-23T02:17:34;96797.03;;;16.85;47.38
22181;BME280;11256;50.830;12.834;2023-04-23T02:22:36;96769.44;;;16.78;47.48
22181;BME280;11256;50.830;12.834;2023-04-23T02:27:37;96773.53;;;16.84;47.50
22181;BME280;11256;50.830;12.834;2023-04-23T02:32:37;96783.69;;;16.83;47.81
22181;BME280;11256;50.830;12.834;2023-04-23T02:37:38;96782.88;;;16.83;47.87
22181;BME280;11256;50.830;12.834;2023-04-23T02:42:39;96776.63;;;16.82;47.77
22181;BME280;11256;50.830;12.834;2023-04-23T02:47:39;96764.66;;;16.63;49.02
22181;BME280;11256;50.830;12.834;2023-04-23T02:52:39;96773.88;;;16.70;48.33
22181;BME280;11256;50.830;12.834;2023-04-23T02:57:40;96769.91;;;16.68;48.40
22181;BME280;11256;50.830;12.834;2023-04-23T03:02:41;96775.94;;;16.61;48.51
22181;BME280;11256;50.830;12.834;2023-04-23T03:07:41;96779.91;;;16.64;48.35
22181;BME280;11256;50.830;12.834;2023-04-23T03:12:42;96758.03;;;16.52;48.91
22181;BME280;11256;50.830;12.834;2023-04-23T03:17:42;96765.75;;;16.50;48.94
22181;BME280;11256;50.830;12.834;2023-04-23T03:22:44;96763.72;;;16.47;48.99
22181;BME280;11256;50.830;12.834;2023-04-23T03:27:45;96765.09;;;16.41;49.10
22181;BME280;11256;50.830;12.834;2023-04-23T03:32:47;96776.47;;;16.43;49.24
22181;BME280;11256;50.830;12.834;2023-04-23T03:37:47;96760.13;;;16.34;49.45
22181;BME280;11256;50.830;12.834;2023-04-23T03:42:48;96771.06;;;16.34;49.59
22181;BME280;11256;50.830;12.834;2023-04-23T03:47:52;96768.44;;;16.26;49.54
22181;BME280;11256;50.830;12.834;2023-04-23T03:52:52;96758.75;;;16.16;49.73
22181;BME280;11256;50.830;12.834;2023-04-23T03:58:13;96774.66;;;16.14;49.72
22181;BME280;11256;50.830;12.834;2023-04-23T04:03:17;96775.25;;;16.08;49.97
22181;BME280;11256;50.830;12.834;2023-04-23T04:08:17;96773.72;;;15.98;49.91
22181;BME280;11256;50.830;12.834;2023-04-23T04:13:17;96775.34;;;15.99;50.44
22181;BME280;11256;50.830;12.834;2023-04-23T04:18:18;96780.69;;;15.96;50.34
22181;BME280;11256;50.830;12.834;2023-04-23T04:23:19;96781.78;;;15.95;50.31
22181;BME280;11256;50.830;12.834;2023-04-23T04:28:19;96787.63;;;15.93;50.71
22181;BME280;11256;50.830;12.834;2023-04-23T04:33:20;96782.47;;;15.92;50.71
22181;BME280;11256;50.830;12.834;2023-04-23T04:38:20;96768.41;;;15.81;50.69
22181;BME280;11256;50.830;12.834;2023-04-23T04:43:21;96788.16;;;15.87;50.72
22181;BME280;11256;50.830;12.834;2023-04-23T04:48:21;96779.34;;;15.81;50.76
22181;BME280;11256;50.830;12.834;2023-04-23T04:53:22;96790.88;;;15.87;51.07
22181;BME280;11256;50.830;12.834;2023-04-23T04:58:22;96796.81;;;15.89;51.39
22181;BME280;11256;50.830;12.834;2023-04-23T05:03:23;96777.69;;;15.89;51.29
22181;BME280;11256;50.830;12.834;2023-04-23T05:08:23;96803.72;;;16.07;51.72
22181;BME280;11256;50.830;12.834;2023-04-23T05:13:24;96805.47;;;16.23;51.94
22181;BME280;11256;50.830;12.834;2023-04-23T05:18:24;96818.31;;;16.43;51.95
22181;BME280;11256;50.830;12.834;2023-04-23T05:23:25;96815.69;;;16.59;52.30
22181;BME280;11256;50.830;12.834;2023-04-23T05:28:25;96820.97;;;16.76;52.33
22181;BME280;11256;50.830;12.834;2023-04-23T05:33:25;96810.25;;;16.83;51.92
22181;BME280;11256;50.830;12.834;2023-04-23T05:38:26;96821.44;;;16.90;51.82
22181;BME280;11256;50.830;12.834;2023-04-23T05:43:26;96830.31;;;16.99;nan
22181;BME280;11256;50.830;12.834;2023-04-23T05:48:26;96825.44;;;17.04;52.25
22181;BME280;11256;50.830;12.834;2023-04-23T05:53:27;96837.63;;;17.07;52.19
22181;BME280;11256;50.830;12.834;2023-04-23T05:58:27;96851.09;;;17.12;52.19
22181;BME280;11256;50.830;12.834;2023-04-23T06:03:27;96854.06;;;17.19;52.51
22181;BME280;11256;50.830;12.834;2023-04-23T06:08:28;96854.28;;;17.14;52.58
22181;BME280;11256;50.830;12.834;2023-04-23T06:13:28;96856.34;;;17.05;52.48
22181;BME280;11256;50.830;12.834;2023-04-23T06:18:29;96875.84;;;17.03;53.80
22181;BME280;11256;50.830;12.834;2023-04-23T06:23:31;96868.53;;;17.07;53.88
22181;BME280;11256;50.830;12.834;2023-04-23T06:28:31;96851.22;;;16.91;53.76
22181;BME280;11256;50.830;12.834;2023-04-23T06:33:54;96857.47;;;16.92;53.55
22181;BME280;11256;50.830;12.834;2023-04-23T06:38:55;96854.50;;;16.97;53.71
22181;BME280;11256;50.830;12.834;2023-04-23T06:43:55;96840.59;;;17.02;54.34
22181;BME280;11256;50.830;12.834;2023-04-23T06:49:05;96849.47;;;17.35;55.08
22181;BME280;11256;50.830;12.834;2023-04-23T06:54:05;96852.63;;;17.73;55.81
22181;BME280;11256;50.830;12.834;2023-04-23T06:59:06;96851.28;;;18.34;55.85
22181;BME280;11256;50.830;12.834;2023-04-23T07:04:09;96850.94;;;18.94;55.27
22181;BME280;11256;50.830;12.834;2023-04-23T07:09:10;96852.78;;;19.52;54.00
22181;BME280;11256;50.830;12.834;2023-04-23T07:14:10;96837.66;;;20.15;52.56
22181;BME280;11256;50.830;12.834;2023-04-23T07:19:10;96829.22;;;20.46;52.15
22181;BME280;11256;50.830;12.834;2023-04-23T07:24:11;96834.09;;;20.94;49.75
22181;BME280;11256;50.830;12.834;2023-04-23T07:29:11;96858.19;;;21.23;49.08
22181;BME280;11256;50.830;12.834;2023-04-23T07:34:13;96856.94;;;21.43;48.24
22181;BME280;11256;50.830;12.834;2023-04-23T07:39:13;96866.44;;;21.68;47.52
22181;BME280;11256;50.830;12.834;2023-04-23T07:44:13;96876.84;;;22.11;48.18
22181;BME280;11256;50.830;12.834;2023-04-23T07:49:14;96876.16;;;22.47;46.55
22181;BME280;11256;50.830;12.834;2023-04-23T07:54:15;96872.84;;;23.04;46.40
22181;BME280;11256;50.830;12.834;2023-04-23T07:59:15;96884.56;;;23.30;45.22
22181;BME280;11256;50.830;12.834;2023-04-23T08:04:16;96883.25;;;23.17;44.40
22181;BME280;11256;50.830;12.834;2023-04-23T08:09:16;96888.50;;;22.93;44.25
22181;BME280;11256;50.830;12.834;2023-04-23T08:14:17;96882.25;;;22.59;44.51
22181;BME280;11256;50.830;12.834;2023-04-23T08:19:20;96901.09;;;22.24;45.00
22181;BME280;11256;50.830;12.834;2023-04-23T08:24:21;96908.03;;;21.85;45.38
22181;BME280;11256;50.830;12.834;2023-04-23T08:29:22;96895.78;;;21.57;45.26
22181;BME280;11256;50.830;12.834;2023-04-23T08:34:22;96892.28;;;21.37;46.10
22181;BME280;11256;50.830;12.834;2023-04-23T08:39:22;96883.75;;;21.20;45.90
22181;BME280;11256;50.830;12.834;2023-04-23T08:44:24;96900.47;;;21.08;46.71
22181;BME280;11256;50.830;12.834;2023-04-23T08:49:28;96899.78;;;20.92;46.65
22181;BME280;11256;50.830;12.834;2023-04-23T08:54:32;96913.19;;;20.74;47.35
22181;BME280;11256;50.830;12.834;2023-04-23T08:59:34;96917.47;;;20.53;47.58
22181;BME280;11256;50.830;12.834;2023-04-23T09:04:36;96915.44;;;20.31;48.45
22181;BME280;11256;50.830;12.834;2023-04-23T09:09:38;96928.91;;;20.36;47.85
22181;BME280;11256;50.830;12.834;2023-04-23T09:14:39;96940.50;;;20.26;48.55
22181;BME280;11256;50.830;12.834;2023-04-23T09:19:40;96947.03;;;20.02;49.03
22181;BME280;11256;50.830;12.834;2023-04-23T09:24:41;96942.16;;;19.96;49.16
22181;BME280;11256;50.830;12.834;2023-04-23T09:29:43;96934.19;;;19.91;49.68
22181;BME280;11256;50.830;12.834;2023-04-23T09:34:43;96942.72;;;19.86;50.38
22181;BME280;11256;50.830;12.834;2023-04-23T09:39:44;96958.28;;;19.63;51.27
22181;BME280;11256;50.830;12.834;2023-04-23T09:44:55;96959.44;;;19.62;50.97
22181;BME280;11256;50.830;12.834;2023-04-23T09:49:55;96947.56;;;19.58;51.18
22181;BME280;11256;50.830;12.834;2023-04-23T09:54:56;96943.19;;;19.41;50.74
22181;BME280;11256;50.830;12.834;2023-04-23T09:59:58;96942.53;;;19.29;50.72
22181;BME280;11256;50.830;12.834;2023-04-23T10:04:58;96928.47;;;19.18;50.48
22181;BME280;11256;50.830;12.834;2023-04-23T10:09:59;96927.22;;;19.16;50.51
22181;BME280;11256;50.830;12.834;2023-04-23T10:14:59;96945.06;;;19.22;50.37
22181;BME280;11256;50.830;12.834;2023-04-23T10:20:00;96923.66;;;19.00;49.56
22181;BME280;11256;50.830;12.834;2023-04-23T10:25:08;96920.47;;;18.98;49.93
22181;BME280;11256;50.830;12.834;2023-04-23T10:30:10;96919.25;;;18.95;50.17
22181;BME280;11256;50.830;12.834;2023-04-23T10:35:11;96923.84;;;18.91;50.28
22181;BME280;11256;50.830;12.834;2023-04-23T10:40:20;96926.88;;;19.02;50.46
22181;BME280;11256;50.830;12.834;2023-04-23T10:45:23;96916.22;;;19.00;50.42
22181;BME280;11256;50.830;12.834;2023-04-23T10:50:28;96901.69;;;19.00;50.92
22181;BME280;11256;50.830;12.834;2023-04-23T10:55:30;96906.84;;;19.17;51.26
22181;BME280;11256;50.830;12.834;2023-04-23T11:05:40;96899.13;;;19.69;51.03
22181;BME280;11256;50.830;12.834;2023-04-23T11:10:59;96912.50;;;20.05;50.54
22181;BME280;11256;50.830;12.834;2023-04-23T11:16:16;96921.97;;;20.23;50.51
22181;BME280;11256;50.830;12.834;2023-04-23T11:21:17;96911.97;;;20.34;50.25
22181;BME280;11256;50.830;12.834;2023-04-23T11:26:18;96901.25;;;20.48;49.81
22181;BME280;11256;50.830;12.834;2023-04-23T11:31:20;96902.81;;;20.68;50.09
22181;BME280;11256;50.830;12.834;2023-04-23T11:36:21;96892.34;;;20.96;49.55
22181;BME280;11256;50.830;12.834;2023-04-23T11:41:22;96882.69;;;21.28;49.42
22181;BME280;11256;50.830;12.834;2023-04-23T11:46:23;96886.56;;;21.72;49.31
22181;BME280;11256;50.830;12.834;2023-04-23T11:51:27;96855.91;;;21.77;49.07
22181;BME280;11256;50.830;12.834;2023-04-23T11:56:31;96869.03;;;22.13;48.75
22181;BME280;11256;50.830;12.834;2023-04-23T12:01:49;96872.28;;;22.22;48.21
22181;BME280;11256;50.830;12.834;2023-04-23T12:06:51;96865.16;;;22.21;48.23
22181;BME280;11256;50.830;12.834;2023-04-23T12:11:51;96860.84;;;22.53;48.57
22181;BME280;11256;50.830;12.834;2023-04-23T12:16:52;96859.97;;;22.82;47.95
22181;BME280;11256;50.830;12.834;2023-04-23T12:22:00;96858.13;;;23.33;45.56
22181;BME280;11256;50.830;12.834;2023-04-23T12:27:01;96867.16;;;23.26;46.79
22181;BME280;11256;50.830;12.834;2023-04-23T12:32:01;96867.59;;;23.32;46.73
22181;BME280;11256;50.830;12.834;2023-04-23T12:37:05;96849.13;;;23.46;46.71
22181;BME280;11256;50.830;12.834;2023-04-23T12:42:07;96844.81;;;23.49;46.90
22181;BME280;11256;50.830;12.834;2023-04-23T12:47:09;96845.31;;;23.61;46.89
22181;BME280;11256;50.830;12.834;2023-04-23T12:52:15;96839.47;;;24.52;44.60
22181;BME280;11256;50.830;12.834;2023-04-23T12:57:15;96828.09;;;24.99;42.69
22181;BME280;11256;50.830;12.834;2023-04-23T13:02:16;96820.19;;;25.15;43.15
22181;BME280;11256;50.830;12.834;2023-04-23T13:07:16;96812.63;;;24.84;45.00
22181;BME280;11256;50.830;12.834;2023-04-23T13:12:16;96798.34;;;24.75;45.06
22181;BME280;11256;50.830;12.834;2023-04-23T13:17:17;96805.91;;;24.92;44.06
22181;BME280;11256;50.830;12.834;2023-04-23T13:22:17;96794.34;;;25.88;41.54
22181;BME280;11256;50.830;12.834;2023-04-23T13:27:17;96797.50;;;25.90;42.06
22181;BME280;11256;50.830;12.834;2023-04-23T13:32:18;96786.91;;;26.60;40.31
22181;BME280;11256;50.830;12.834;2023-04-23T13:37:18;96767.88;;;26.59;39.58
22181;BME280;11256;50.830;12.834;2023-04-23T13:42:18;96756.44;;;27.01;37.41
22181;BME280;11256;50.830;12.834;2023-04-23T13:47:19;96760.97;;;27.32;38.79
22181;BME280;11256;50.830;12.834;2023-04-23T13:52:19;96746.69;;;27.30;38.69
22181;BME280;11256;50.830;12.834;2023-04-23T13:57:20;96744.94;;;26.99;40.52
22181;BME280;11256;50.830;12.834;2023-04-23T14:02:22;96731.09;;;26.92;40.22
22181;BME280;11256;50.830;12.834;2023-04-23T14:07:23;96741.88;;;27.71;37.77
22181;BME280;11256;50.830;12.834;2023-04-23T14:12:25;96744.28;;;27.32;38.88
22181;BME280;11256;50.830;12.834;2023-04-23T14:17:27;96742.25;;;26.85;38.78
22181;BME280;11256;50.830;12.834;2023-04-23T14:22:28;96735.03;;;26.98;38.32
22181;BME280;11256;50.830;12.834;2023-04-23T14:27:38;96726.03;;;26.80;39.79
22181;BME280;11256;50.830;12.834;2023-04-23T14:32:39;96700.31;;;26.69;39.79
22181;BME280;11256;50.830;12.834;2023-04-23T14:37:43;96706.41;;;26.43;40.41
22181;BME280;11256;50.830;12.834;2023-04-23T14:42:46;96700.41;;;26.48;39.33
22181;BME280;11256;50.830;12.834;2023-04-23T14:47:46;96686.59;;;26.34;39.24
22181;BME280;11256;50.830;12.834;2023-04-23T14:52:48;96688.53;;;26.44;38.82
22181;BME280;11256;50.830;12.834;2023-04-23T14:57:48;96681.19;;;26.71;37.34
22181;BME280;11256;50.830;12.834;2023-04-23T15:02:58;96680.88;;;26.62;38.84
22181;BME280;11256;50.830;12.834;2023-04-23T15:08:12;96663.44;;;26.51;38.46
22181;BME280;11256;50.830;12.834;2023-04-23T15:18:13;96663.94;;;26.39;39.54
22181;BME280;11256;50.830;12.834;2023-04-23T15:23:14;96641.63;;;26.46;38.06
22181;BME280;11256;50.830;12.834;2023-04-23T15:28:14;96645.56;;;26.52;38.49
22181;BME280;11256;50.830;12.834;2023-04-23T15:33:15;96645.56;;;26.59;37.53
22181;BME280;11256;50.830;12.834;2023-04-23T15:38:17;96640.81;;;26.56;38.16
22181;BME280;11256;50.830;12.834;2023-04-23T15:43:17;96639.22;;;26.55;38.37
22181;BME280;11256;50.830;12.834;2023-04-23T15:48:18;96642.00;;;26.55;38.01
22181;BME280;11256;50.830;12.834;2023-04-23T15:53:18;96634.72;;;26.17;36.54
22181;BME280;11256;50.830;12.834;2023-04-23T15:58:22;96627.41;;;25.72;38.76
22181;BME280;11256;50.830;12.834;2023-04-23T16:03:22;96630.38;;;25.09;37.38
22181;BME280;11256;50.830;12.834;2023-04-23T16:08:22;96626.50;;;24.64;37.83
22181;BME280;11256;50.830;12.834;2023-04-23T16:13:23;96613.06;;;24.63;38.38
22181;BME280;11256;50.830;12.834;2023-04-23T16:18:23;96608.28;;;24.77;41.09
22181;BME280;11256;50.830;12.834;2023-04-23T16:23:24;96611.44;;;24.90;41.19
22181;BME280;11256;50.830;12.834;2023-04-23T16:28:24;96635.97;;;24.98;42.64
22181;BME280;11256;50.830;12.834;2023-04-23T16:33:25;96632.78;;;24.93;43.56
22181;BME280;11256;50.830;12.834;2023-04-23T16:38:26;96623.69;;;24.82;42.84
22181;BME280;11256;50.830;12.834;2023-04-23T16:43:26;96618.56;;;24.70;43.14
22181;BME280;11256;50.830;12.834;2023-04-23T16:48:27;96594.00;;;24.51;43.55
22181;BME280;11256;50.830;12.834;2023-04-23T16:53:27;96594.81;;;24.51;43.95
22181;BME280;11256;50.830;12.834;2023-04-23T16:58:27;96580.16;;;24.40;44.55
22181;BME280;11256;50.830;12.834;2023-04-23T17:03:28;96580.56;;;24.35;44.21
22181;BME280;11256;50.830;12.834;2023-04-23T17:08:28;96577.38;;;23.95;43.15
22181;BME280;11256;50.830;12.834;2023-04-23T17:13:28;96569.00;;;23.67;43.00
22181;BME280;11256;50.830;12.834;2023-04-23T17:18:29;96559.88;;;23.56;44.56
22181;BME280;11256;50.830;12.834;2023-04-23T17:23:29;96553.53;;;23.48;45.20
22181;BME280;11256;50.830;12.834;2023-04-23T17:28:30;96550.34;;;23.36;44.65
22181;BME280;11256;50.830;12.834;2023-04-23T17:33:31;96520.53;;;22.91;44.10
22181;BME280;11256;50.830;12.834;2023-04-23T17:38:31;96538.31;;;23.00;44.94
22181;BME280;11256;50.830;12.834;2023-04-23T17:43:32;96532.78;;;22.93;45.17
22181;BME280;11256;50.830;12.834;2023-04-23T17:48:34;96529.16;;;22.75;45.45
22181;BME280;11256;50.830;12.834;2023-04-23T17:53:34;96539.38;;;22.71;45.72
22181;BME280;11256;50.830;12.834;2023-04-23T17:58:35;96545.59;;;22.58;45.81
22181;BME280;11256;50.830;12.834;2023-04-23T18:03:35;96545.13;;;22.45;45.77
22181;BME280;11256;50.830;12.834;2023-04-23T18:08:36;96550.13;;;22.33;45.99
22181;BME280;11256;50.830;12.834;2023-04-23T18:13:37;96555.56;;;22.19;46.11
22181;BME280;11256;50.830;12.834;2023-04-23T18:18:37;96555.84;;;22.03;45.99
22181;BME280;11256;50.830;12.834;2023-04-23T18:23:38;96559.66;;;21.88;46.22
22181;BME280;11256;50.830;12.834;2023-04-23T18:28:38;96546.47;;;21.68;46.09
22181;BME280;11256;50.830;12.834;2023-04-23T18:38:43;96563.16;;;21.49;46.59
22181;BME280;11256;50.830;12.834;2023-04-23T18:43:46;96561.41;;;21.34;46.66
22181;BME280;11256;50.830;12.834;2023-04-23T18:49:04;96552.53;;;21.14;46.67
22181;BME280;11256;50.830;12.834;2023-04-23T18:54:05;96557.06;;;21.00;46.95
22181;BME280;11256;50.830;12.834;2023-04-23T18:59:06;96550.56;;;20.85;47.27
22181;BME280;11256;50.830;12.834;2023-04-23T19:04:06;96541.75;;;20.73;47.23
22181;BME280;11256;50.830;12.834;2023-04-23T19:09:06;96547.06;;;20.59;47.30
22181;BME280;11256;50.830;12.834;2023-04-23T19:14:07;96542.16;;;20.45;47.42
22181;BME280;11256;50.830;12.834;2023-04-23T19:19:07;96542.31;;;20.30;47.54
22181;BME280;11256;50.830;12.834;2023-04-23T19:24:07;96524.38;;;20.13;47.65
22181;BME280;11256;50.830;12.834;2023-04-23T19:29:08;96524.47;;;19.98;47.96
22181;BME280;11256;50.830;12.834;2023-04-23T19:34:08;96533.75;;;19.86;48.17
22181;BME280;11256;50.830;12.834;2023-04-23T19:39:08;96537.81;;;19.73;48.02
22181;BME280;11256;50.830;12.834;2023-04-23T19:44:09;96519.03;;;19.53;48.16
22181;BME280;11256;50.830;12.834;2023-04-23T19:49:10;96523.66;;;19.49;48.51
22181;BME280;11256;50.830;12.834;2023-04-23T19:54:10;96521.84;;;19.34;48.55
22181;BME280;11256;50.830;12.834;2023-04-23T19:59:10;96509.38;;;19.21;48.71
22181;BME280;11256;50.830;12.834;2023-04-23T20:04:16;96498.91;;;19.07;48.65
22181;BME280;11256;50.830;12.834;2023-04-23T20:09:16;96491.94;;;18.91;48.85
22181;BME280;11256;50.830;12.834;2023-04-23T20:14:20;96496.91;;;18.85;48.86
22181;BME280;11256;50.830;12.834;2023-04-23T20:19:21;96487.19;;;18.69;49.19
22181;BME280;11256;50.830;12.834;2023-04-23T20:24:24;96486.94;;;18.58;49.18
22181;BME280;11256;50.830;12.834;2023-04-23T20:29:25;96470.50;;;18.39;49.34
22181;BME280;11256;50.830;12.834;2023-04-23T20:34:26;96483.81;;;18.41;49.42
22181;BME280;11256;50.830;12.834;2023-04-23T20:39:26;96487.84;;;18.28;49.52
22181;BME280;11256;50.830;12.834;2023-04-23T20:44:27;96488.13;;;18.23;49.27
22181;BME280;11256;50.830;12.834;2023-04-23T20:49:27;96495.38;;;18.15;49.68
22181;BME280;11256;50.830;12.834;2023-04-23T20:54:28;96492.00;;;18.03;49.70
22181;BME280;11256;50.830;12.834;2023-04-23T20:59:28;96482.28;;;17.90;49.67
22181;BME280;11256;50.830;12.834;2023-04-23T21:04:28;96487.13;;;17.81;49.60
22181;BME280;11256;50.830;12.834;2023-04-23T21:09:29;96478.69;;;17.70;49.71
22181;BME280;11256;50.830;12.834;2023-04-23T21:14:32;96480.09;;;17.64;50.08
22181;BME280;11256;50.830;12.834;2023-04-23T21:19:32;96460.22;;;17.52;50.28
22181;BME280;11256;50.830;12.834;2023-04-23T21:24:32;96477.38;;;17.49;50.41
22181;BME280;11256;50.830;12.834;2023-04-23T21:29:33;96479.91;;;17.42;50.51
22181;BME280;11256;50.830;12.834;2023-04-23T21:34:33;96462.66;;;17.26;50.28
22181;BME280;11256;50.830;12.834;2023-04-23T21:39:34;96451.09;;;17.17;50.43
22181;BME280;11256;50.830;12.834;2023-04-23T21:44:34;96456.13;;;17.15;50.58
22181;BME280;11256;50.830;12.834;2023-04-23T21:49:35;96460.97;;;17.06;50.72
22181;BME280;11256;50.830;12.834;2023-04-23T21:54:36;96450.22;;;16.97;50.85
22181;BME280;11256;50.830;12.834;2023-04-23T21:59:36;96415.66;;;16.77;51.07
22181;BME280;11256;50.830;12.834;2023-04-23T22:04:36;96416.34;;;16.74;51.07
22181;BME280;11256;50.830;12.834;2023-04-23T22:09:37;96420.69;;;16.75;51.19
22181;BME280;11256;50.830;12.834;2023-04-23T22:14:37;96406.09;;;16.56;51.23
22181;BME280;11256;50.830;12.834;2023-04-23T22:19:38;96428.84;;;16.60;51.08
22181;BME280;11256;50.830;12.834;2023-04-23T22:24:38;96426.59;;;16.50;51.24
22181;BME280;11256;50.830;12.834;2023-04-23T22:29:38;96422.91;;;16.42;51.49
22181;BME280;11256;50.830;12.834;2023-04-23T22:34:39;96409.78;;;16.36;52.01
22181;BME280;11256;50.830;12.834;2023-04-23T22:39:39;96404.56;;;16.31;51.45
22181;BME280;11256;50.830;12.834;2023-04-23T22:44:39;96412.34;;;16.29;51.67
22181;BME280;11256;50.830;12.834;2023-04-23T22:49:40;96398.34;;;16.18;51.67
22181;BME280;11256;50.830;12.834;2023-04-23T22:54:41;96411.25;;;16.18;51.83
22181;BME280;11256;50.830;12.834;2023-04-23T22:59:41;96439.69;;;16.17;51.95
22181;BME280;11256;50.830;12.834;2023-04-23T23:04:42;96422.69;;;15.96;52.07
22181;BME280;11256;50.830;12.834;2023-04-23T23:09:42;96444.44;;;16.04;52.30
22181;BME280;11256;50.830;12.834;2023-04-23T23:14:42;96432.91;;;15.99;52.67
22181;BME280;11256;50.830;12.834;2023-04-23T23:19:43;96441.22;;;16.02;54.25
22181;BME280;11256;50.830;12.834;2023-04-23T23:24:43;96435.31;;;16.00;54.61
22181;BME280;11256;50.830;12.834;2023-04-23T23:29:44;96442.47;;;16.05;54.08
22181;BME280;11256;50.830;12.834;2023-04-23T23:34:44;96438.16;;;16.04;54.31
22181;BME280;11256;50.830;12.834;2023-04-23T23:39:45;96412.22;;;15.98;54.22
22181;BME280;11256;50.830;12.834;2023-04-23T23:44:45;96423.81;;;16.07;55.24
22181;BME280;11256;50.830;12.834;2023-04-23T23:49:46;96412.75;;;16.03;54.78
22181;BME280;11256;50.830;12.834;2023-04-23T23:54:46;96406.94;;;16.05;54.73
22181;BME280;11256;50.830;12.834;2023-04-23T23:59:46;96404.00;;;15.98;54.91
